Time;durP1;ratioP1;P1;durP2;ratioP2;P2;SDS_P1;SDS_P2;PMS_P1;PMS_P2;Temp;Humidity;BMP_temperature;BMP_pressure;BME280_temperature;BME280_humidity;BME280_pressure;Samples;Min_cycle;Max_cycle;Signal;HPM_P1;HPM_P2
2021/08/04 10:19:11;;;;;;;12.93;5.97;;;;;;;27.60;42.56;97150.00;127181;1092;62709;-63
2021/08/04 10:21:42;;;;;;;9.30;5.07;;;;;;;27.63;42.52;97156.77;127071;1092;62584;-58
2021/08/04 10:24:10;;;;;;;10.03;5.40;;;;;;;27.75;42.63;97149.63;127047;1092;62633;-53
2021/08/04 10:26:37;;;;;;;6.23;4.90;;;;;;;27.96;42.37;97148.29;127024;1092;62619;-55
2021/08/04 10:29:05;;;;;;;10.73;4.77;;;;;;;28.13;42.09;97145.78;127017;1092;62604;-53
2021/08/04 10:31:32;;;;;;;8.33;4.67;;;;;;;28.31;41.88;97151.09;126890;1092;62802;-57
2021/08/04 10:33:59;;;;;;;7.53;5.13;;;;;;;28.48;41.51;97147.77;126965;1092;62587;-56
2021/08/04 10:36:35;;;;;;;6.17;4.60;;;;;;;28.59;41.46;97153.14;126819;1092;62683;-54
2021/08/04 10:39:10;;;;;;;7.37;4.80;;;;;;;28.67;41.44;97149.30;126829;1092;62631;-61
2021/08/04 10:41:37;;;;;;;7.23;4.40;;;;;;;28.74;41.23;97154.56;126790;1092;62622;-63
2021/08/04 10:44:06;;;;;;;7.33;5.30;;;;;;;28.77;40.67;97157.61;126926;1092;62710;-48
2021/08/04 10:46:37;;;;;;;;;;;;;;;28.80;40.78;97157.15;127102;1092;62581;-62
2021/08/04 10:49:04;;;;;;;6.00;4.00;;;;;;;28.83;40.76;97151.28;127056;1092;62693;-49
2021/08/04 10:51:32;;;;;;;8.60;4.33;;;;;;;28.85;40.70;97148.38;127069;1092;62636;-63
2021/08/04 10:54:02;;;;;;;6.60;4.23;;;;;;;28.85;40.78;97156.45;126879;1092;62617;-62
2021/08/04 10:56:32;;;;;;;7.83;4.73;;;;;;;28.81;40.83;97153.40;126925;1092;62569;-61
2021/08/04 10:59:07;;;;;;;5.80;4.37;;;;;;;28.77;40.89;97146.84;126939;1092;62993;-61
2021/08/04 11:01:41;;;;;;;8.07;4.57;;;;;;;28.76;41.00;97141.71;127016;1090;62629;-63
2021/08/04 11:04:09;;;;;;;6.75;4.20;;;;;;;28.73;41.17;97150.23;126847;1092;62665;-67
2021/08/04 11:07:08;;;;;;;5.30;3.80;;;;;;;28.69;41.03;97147.19;126900;1092;62619;-57
2021/08/04 11:09:42;;;;;;;7.03;3.93;;;;;;;28.65;41.18;97141.45;126903;1092;63048;-64
2021/08/04 11:12:16;;;;;;;7.80;4.20;;;;;;;28.64;41.62;97139.81;126932;1092;62613;-61
2021/08/04 11:14:56;;;;;;;7.83;4.03;;;;;;;28.64;41.74;97141.69;126847;1092;62622;-54
2021/08/04 11:17:28;;;;;;;6.53;3.83;;;;;;;28.65;41.75;97138.77;126938;1092;62613;-62
2021/08/04 11:20:05;;;;;;;9.50;4.40;;;;;;;28.70;41.43;97129.18;126907;1092;62639;-62
2021/08/04 11:22:35;;;;;;;7.80;4.30;;;;;;;28.75;41.50;97134.67;127042;1092;62569;-54
2021/08/04 11:25:32;;;;;;;8.70;4.20;;;;;;;28.79;41.72;97133.16;127103;1092;63050;-50
2021/08/04 11:27:59;;;;;;;7.77;4.07;;;;;;;28.84;41.28;97128.73;127172;1092;62604;-65
2021/08/04 11:30:47;;;;;;;6.50;4.10;;;;;;;28.92;41.44;97133.73;127118;1092;62636;-65
2021/08/04 11:33:38;;;;;;;5.08;3.83;;;;;;;29.03;41.31;97125.95;126812;1092;62572;-63
2021/08/04 11:36:10;;;;;;;7.63;4.10;;;;;;;29.14;41.31;97125.09;126874;1090;62777;-67
2021/08/04 11:38:55;;;;;;;6.90;4.35;;;;;;;29.29;41.28;97128.10;126921;1092;62620;-59
2021/08/04 11:41:22;;;;;;;7.05;4.05;;;;;;;29.51;40.88;97122.09;126888;1092;62620;-55
2021/08/04 11:43:51;;;;;;;8.23;4.53;;;;;;;29.69;40.67;97119.24;126894;1092;62619;-51
2021/08/04 11:46:35;;;;;;;7.65;4.23;;;;;;;29.84;40.50;97121.40;126898;1092;62566;-60
2021/08/04 11:49:16;;;;;;;7.23;3.83;;;;;;;29.98;39.91;97108.45;126860;1092;62772;-59
2021/08/04 11:51:45;;;;;;;5.55;3.45;;;;;;;30.12;39.63;97102.50;126877;1092;62617;-59
2021/08/04 11:54:13;;;;;;;5.83;3.53;;;;;;;30.23;39.48;97100.84;126955;1092;62565;-57
2021/08/04 11:56:44;;;;;;;4.10;2.75;;;;;;;30.26;39.06;97105.73;126998;1092;62628;-56
2021/08/04 11:59:11;;;;;;;4.47;3.17;;;;;;;30.25;39.02;97101.41;127099;1092;63045;-60
2021/08/04 12:01:38;;;;;;;3.70;2.40;;;;;;;30.26;39.02;97100.34;127018;1092;63191;-58
2021/08/04 12:04:06;;;;;;;4.25;2.80;;;;;;;30.29;39.06;97105.25;126982;1092;62614;-58
2021/08/04 12:06:36;;;;;;;3.30;2.48;;;;;;;30.30;38.64;97109.57;126978;1092;62683;-60
2021/08/04 12:09:27;;;;;;;3.90;2.80;;;;;;;30.29;38.39;97116.03;126873;1092;62633;-60
2021/08/04 12:11:54;;;;;;;3.77;2.30;;;;;;;30.27;38.12;97112.75;126897;1092;62574;-57
2021/08/04 12:14:22;;;;;;;;;;;;;;;30.33;37.32;97101.00;126993;1092;62584;-57
2021/08/04 12:16:55;;;;;;;3.07;2.63;;;;;;;30.43;37.75;97111.13;127050;1092;62636;-57
2021/08/04 12:19:39;;;;;;;3.30;2.30;;;;;;;30.48;37.29;97102.31;126921;1092;62625;-58
2021/08/04 12:22:17;;;;;;;3.53;2.10;;;;;;;30.52;37.10;97108.84;126976;1092;62594;-60
2021/08/04 12:24:55;;;;;;;3.10;2.23;;;;;;;30.54;36.96;97107.52;126869;1089;62615;-58
2021/08/04 12:27:49;;;;;;;3.83;2.43;;;;;;;30.59;36.69;97098.69;126897;1092;62789;-59
2021/08/04 12:30:27;;;;;;;3.60;2.00;;;;;;;30.63;36.47;97095.25;126937;1092;63066;-59
2021/08/04 12:33:03;;;;;;;3.25;2.20;;;;;;;30.66;36.16;97100.16;127014;1092;62604;-56
2021/08/04 12:35:45;;;;;;;2.73;2.00;;;;;;;30.75;35.77;97099.78;127072;1092;62622;-60
2021/08/04 12:38:21;;;;;;;2.67;2.00;;;;;;;30.82;35.47;97098.52;127054;1092;62639;-60
2021/08/04 12:40:50;;;;;;;3.03;2.03;;;;;;;30.91;35.46;97098.92;126975;1092;62569;-59
2021/08/04 12:43:17;;;;;;;2.35;1.78;;;;;;;30.98;34.98;97099.56;127025;1092;62605;-59
2021/08/04 12:45:54;;;;;;;2.50;2.00;;;;;;;31.04;34.82;97098.56;127126;1092;62616;-59
2021/08/04 12:48:40;;;;;;;2.77;2.00;;;;;;;31.14;34.58;97103.27;126925;1092;62626;-60
2021/08/04 12:51:12;;;;;;;2.60;2.17;;;;;;;31.17;34.31;97094.69;126979;1092;62629;-58
2021/08/04 12:53:39;;;;;;;3.80;2.67;;;;;;;31.15;34.12;97102.20;127057;1092;62561;-59
2021/08/04 12:56:08;;;;;;;5.25;2.15;;;;;;;31.14;34.09;97095.17;127017;1092;62616;-60
2021/08/04 12:59:01;;;;;;;3.07;1.77;;;;;;;31.12;33.67;97094.63;126921;1092;62616;-59
2021/08/04 13:01:31;;;;;;;3.00;1.83;;;;;;;31.12;33.83;97103.53;126882;1092;62629;-58
2021/08/04 13:04:20;;;;;;;2.17;1.90;;;;;;;31.13;33.80;97098.95;126904;1092;62581;-61
2021/08/04 13:06:51;;;;;;;;;;;;;;;31.16;33.41;97093.87;127023;1090;62629;-60
2021/08/04 13:09:19;;;;;;;2.55;1.90;;;;;;;31.24;33.76;97091.78;127046;1092;62920;-60
2021/08/04 13:11:47;;;;;;;3.80;1.93;;;;;;;31.33;33.61;97101.92;127086;1092;62694;-60
2021/08/04 13:14:14;;;;;;;2.60;1.73;;;;;;;31.43;33.63;97093.97;126942;1092;62623;-60
2021/08/04 13:16:42;;;;;;;2.17;1.60;;;;;;;31.57;33.29;97101.65;126999;1092;62616;-59
2021/08/04 13:19:19;;;;;;;2.87;1.87;;;;;;;31.72;32.77;97090.22;126982;1092;62617;-60
2021/08/04 13:22:06;;;;;;;2.60;2.00;;;;;;;32.02;32.67;97073.50;126949;1092;62636;-60
2021/08/04 13:24:37;;;;;;;2.10;1.50;;;;;;;32.57;32.25;97092.09;126926;1092;62630;-59
2021/08/04 13:27:28;;;;;;;2.43;1.87;;;;;;;33.18;31.29;97089.76;126896;1092;62605;-60
2021/08/04 13:29:55;;;;;;;2.73;1.70;;;;;;;33.82;30.47;97091.35;126956;1092;62936;-60
2021/08/04 13:32:26;;;;;;;2.40;1.80;;;;;;;34.25;29.25;97086.56;127076;1092;62622;-60
2021/08/04 13:34:52;;;;;;;2.80;1.90;;;;;;;34.74;28.42;97091.42;127022;1092;62777;-60
2021/08/04 13:37:20;;;;;;;2.65;2.00;;;;;;;35.35;27.21;97101.31;126895;1092;62615;-60
2021/08/04 13:39:47;;;;;;;2.33;1.90;;;;;;;36.07;26.40;97096.36;127066;1092;62568;-60
2021/08/04 13:42:14;;;;;;;2.60;1.70;;;;;;;36.84;25.74;97094.63;127123;1092;62636;-60
2021/08/04 13:44:41;;;;;;;2.70;1.70;;;;;;;37.57;24.84;97098.17;126911;1092;63006;-59
2021/08/04 13:47:08;;;;;;;2.13;1.60;;;;;;;37.99;23.93;97094.59;126980;1092;62758;-60
2021/08/04 13:49:35;;;;;;;2.93;1.63;;;;;;;38.12;23.39;97096.58;127081;1092;62636;-61
2021/08/04 13:52:03;;;;;;;3.07;1.83;;;;;;;38.04;23.09;97097.27;126904;1092;62626;-58
2021/08/04 13:54:30;;;;;;;;;;;;;;;37.92;22.48;97088.72;126931;1092;62620;-60
2021/08/04 13:56:57;;;;;;;2.27;1.67;;;;;;;37.75;23.27;97086.47;126904;1092;62616;-60
2021/08/04 13:59:24;;;;;;;3.23;1.85;;;;;;;37.53;22.78;97083.50;126936;1092;62617;-60
2021/08/04 14:01:51;;;;;;;1.77;1.50;;;;;;;37.39;22.61;97089.66;127002;1092;62610;-61
2021/08/04 14:04:19;;;;;;;2.47;1.60;;;;;;;37.52;22.56;97082.69;126975;1092;62617;-61
2021/08/04 14:06:46;;;;;;;1.87;1.60;;;;;;;38.04;22.16;97082.80;127102;1092;62677;-61
2021/08/04 14:09:13;;;;;;;2.50;1.70;;;;;;;38.71;21.58;97080.61;127072;1092;62562;-61
2021/08/04 14:11:39;;;;;;;2.15;1.65;;;;;;;39.50;20.99;97090.59;126950;1092;62616;-61
2021/08/04 14:14:06;;;;;;;2.18;1.60;;;;;;;40.21;20.16;97083.53;126958;1092;62620;-60
2021/08/04 14:16:33;;;;;;;2.77;1.90;;;;;;;40.90;19.61;97078.48;127120;1092;62617;-61
2021/08/04 14:19:01;;;;;;;1.93;1.47;;;;;;;41.57;19.20;97090.37;127005;1092;62633;-60
2021/08/04 14:21:28;;;;;;;2.10;1.73;;;;;;;42.18;18.71;97085.73;126940;1092;62998;-60
2021/08/04 14:23:55;;;;;;;2.73;1.70;;;;;;;42.59;17.97;97076.96;126999;1092;62618;-60
2021/08/04 14:26:22;;;;;;;3.13;1.60;;;;;;;43.00;17.97;97077.50;126981;1092;62637;-61
2021/08/04 14:28:48;;;;;;;1.90;1.70;;;;;;;43.41;17.74;97074.08;126926;1092;63063;-60
2021/08/04 14:31:15;;;;;;;2.30;1.60;;;;;;;43.84;17.44;97073.02;126929;1092;63022;-61
2021/08/04 14:33:42;;;;;;;3.20;1.60;;;;;;;44.27;17.13;97078.16;126978;1092;62619;-61
2021/08/04 14:36:09;;;;;;;2.47;2.07;;;;;;;44.67;16.73;97080.38;126987;1092;62639;-61
2021/08/04 14:38:36;;;;;;;2.70;2.07;;;;;;;44.78;16.31;97065.00;126960;1092;62646;-59
2021/08/04 14:41:03;;;;;;;3.27;2.60;;;;;;;45.04;16.26;97061.16;126957;1092;62616;-60
2021/08/04 14:43:30;;;;;;;4.03;3.20;;;;;;;45.33;16.23;97063.66;126895;1092;62980;-62
2021/08/04 14:45:57;;;;;;;3.30;2.37;;;;;;;45.65;15.65;97066.63;127053;1092;62605;-60
2021/08/04 14:48:24;;;;;;;5.73;2.67;;;;;;;45.95;15.09;97062.44;127678;1092;62623;-61
2021/08/04 14:50:51;;;;;;;3.63;2.43;;;;;;;46.28;14.94;97063.38;126947;1092;62617;-60
2021/08/04 14:53:19;;;;;;;2.93;2.20;;;;;;;46.65;14.70;97048.20;126905;1092;62601;-61
2021/08/04 14:55:46;;;;;;;3.00;2.18;;;;;;;47.04;14.03;97053.13;127045;1092;62610;-63
2021/08/04 14:58:12;;;;;;;2.50;1.93;;;;;;;47.36;14.14;97049.17;126927;1092;62645;-61
2021/08/04 15:00:39;;;;;;;2.40;1.80;;;;;;;47.63;13.99;97054.91;126936;1092;63022;-61
2021/08/04 15:03:06;;;;;;;2.83;1.90;;;;;;;47.94;13.82;97054.81;127043;1092;62622;-67
2021/08/04 15:05:34;;;;;;;1.80;1.70;;;;;;;48.29;13.10;97050.35;127081;1092;62629;-67
2021/08/04 15:08:00;;;;;;;;;;;;;;;48.62;13.78;97056.13;126975;1092;62588;-64
2021/08/04 15:10:27;;;;;;;1.73;1.50;;;;;;;48.97;12.62;97048.83;126832;1092;62554;-65
2021/08/04 15:12:54;;;;;;;2.00;1.70;;;;;;;49.22;12.12;97061.13;126894;1092;62629;-65
2021/08/04 15:15:21;;;;;;;4.03;1.80;;;;;;;49.43;11.91;97052.33;126927;1092;62644;-65
2021/08/04 15:17:48;;;;;;;2.90;1.80;;;;;;;49.63;11.96;97051.05;126847;1092;62619;-64
2021/08/04 15:20:15;;;;;;;2.10;1.70;;;;;;;49.86;11.86;97052.95;126855;1092;62603;-63
2021/08/04 15:22:42;;;;;;;3.73;1.97;;;;;;;50.06;11.50;97050.80;126957;1092;62585;-65
2021/08/04 15:25:10;;;;;;;3.38;1.83;;;;;;;50.24;10.98;97059.37;126995;1092;62646;-64
2021/08/04 15:27:37;;;;;;;3.37;1.77;;;;;;;50.33;10.91;97052.33;127206;1092;62565;-66
2021/08/04 15:30:04;;;;;;;4.45;2.40;;;;;;;50.45;10.78;97049.28;127053;1092;62620;-67
2021/08/04 15:32:31;;;;;;;2.60;1.78;;;;;;;50.55;10.53;97052.58;127130;1092;62626;-67
2021/08/04 15:34:58;;;;;;;3.23;1.80;;;;;;;50.63;10.23;97043.13;127070;1092;62649;-65
2021/08/04 15:37:25;;;;;;;2.83;2.00;;;;;;;50.70;10.03;97060.66;126958;1092;62588;-63
2021/08/04 15:39:52;;;;;;;1.90;1.70;;;;;;;50.70;10.10;97043.17;127018;1092;62633;-67
2021/08/04 15:42:19;;;;;;;2.83;1.80;;;;;;;50.50;9.98;97050.95;126901;1092;62605;-64
2021/08/04 15:44:46;;;;;;;2.33;1.80;;;;;;;49.54;10.47;97036.64;126917;1092;62601;-67
2021/08/04 15:47:13;;;;;;;3.43;2.30;;;;;;;48.20;11.01;97033.95;126902;1092;62700;-66
2021/08/04 15:49:40;;;;;;;3.05;2.03;;;;;;;47.16;11.74;97025.37;126882;1092;62572;-67
2021/08/04 15:52:07;;;;;;;2.93;1.80;;;;;;;46.55;12.08;97023.03;126883;1091;62584;-64
2021/08/04 15:54:34;;;;;;;3.93;1.90;;;;;;;46.03;12.32;97035.81;126882;1092;62605;-66
2021/08/04 15:57:01;;;;;;;2.07;1.50;;;;;;;45.41;12.71;97026.10;127016;1092;62639;-64
2021/08/04 15:59:28;;;;;;;;;;;;;;;44.91;12.89;97025.27;127026;1092;62581;-66
2021/08/04 16:01:55;;;;;;;2.40;1.73;;;;;;;44.09;13.66;97021.62;127057;1092;62572;-66
2021/08/04 16:04:22;;;;;;;2.57;1.80;;;;;;;43.14;14.15;97023.13;126881;1092;62566;-64
2021/08/04 16:06:52;;;;;;;2.80;1.90;;;;;;;42.18;14.67;97023.39;126919;1092;62572;-66
2021/08/04 16:09:19;;;;;;;2.38;1.78;;;;;;;41.24;15.36;97029.63;126943;1092;62633;-66
2021/08/04 16:11:46;;;;;;;2.60;1.70;;;;;;;40.36;16.09;97025.68;126909;1092;62627;-67
2021/08/04 16:14:13;;;;;;;3.00;1.80;;;;;;;39.58;16.67;97029.72;126872;1092;62630;-66
2021/08/04 16:16:40;;;;;;;2.23;1.73;;;;;;;38.83;17.17;97025.50;126921;1092;62584;-65
2021/08/04 16:19:10;;;;;;;4.00;1.90;;;;;;;38.14;18.14;97033.55;126894;1092;62659;-66
2021/08/04 16:21:38;;;;;;;2.35;1.60;;;;;;;37.52;18.52;97025.45;126903;1092;62705;-64
2021/08/04 16:24:05;;;;;;;3.08;1.75;;;;;;;37.01;18.83;97031.53;126902;1092;62655;-65
2021/08/04 16:26:32;;;;;;;2.53;1.90;;;;;;;36.52;19.45;97029.08;126893;1092;62620;-65
2021/08/04 16:28:59;;;;;;;2.78;1.80;;;;;;;36.00;19.97;97025.14;126952;1092;63075;-65
2021/08/04 16:31:26;;;;;;;2.17;1.80;;;;;;;35.46;20.38;97024.14;126932;1091;62630;-64
2021/08/04 16:33:53;;;;;;;2.60;1.70;;;;;;;34.93;20.80;97021.05;127017;1092;62621;-64
2021/08/04 16:36:20;;;;;;;2.60;1.90;;;;;;;34.45;21.10;97018.72;127045;1092;62753;-65
2021/08/04 16:38:47;;;;;;;3.05;1.90;;;;;;;34.03;21.54;97015.52;127084;1092;62677;-62
2021/08/04 16:41:14;;;;;;;2.23;1.75;;;;;;;33.60;22.01;97001.34;127115;1092;62620;-64
2021/08/04 16:43:41;;;;;;;3.87;1.80;;;;;;;33.19;22.04;97009.36;126917;1092;62612;-61
2021/08/04 16:46:09;;;;;;;3.77;1.60;;;;;;;32.81;22.49;97015.92;126886;1092;63002;-62
2021/08/04 16:48:39;;;;;;;2.30;1.80;;;;;;;32.42;22.98;97013.55;126987;1092;62760;-63
2021/08/04 16:51:06;;;;;;;2.20;1.70;;;;;;;32.04;23.33;97009.20;127021;1092;62629;-63
2021/08/04 16:53:33;;;;;;;2.60;2.00;;;;;;;31.67;23.78;97007.23;127045;1092;62616;-64
2021/08/04 16:56:00;;;;;;;2.50;1.77;;;;;;;31.31;24.41;97001.47;126951;1092;62612;-57
2021/08/04 16:58:32;;;;;;;2.20;1.90;;;;;;;30.98;24.94;97004.30;127041;1092;62684;-52
2021/08/04 17:00:59;;;;;;;3.20;2.00;;;;;;;30.65;25.57;97006.83;126896;1092;62721;-57
2021/08/04 17:03:26;;;;;;;3.15;2.20;;;;;;;30.34;26.29;97010.16;127006;1092;62700;-55
2021/08/04 17:05:53;;;;;;;2.30;2.00;;;;;;;30.03;26.87;97014.22;126918;1092;62625;-50
2021/08/04 17:08:20;;;;;;;2.87;2.10;;;;;;;29.75;27.45;97009.72;127033;1092;62649;-49
2021/08/04 17:10:48;;;;;;;2.40;2.00;;;;;;;29.49;28.02;97014.64;127084;1092;62572;-52
2021/08/04 17:13:15;;;;;;;3.78;2.38;;;;;;;29.27;28.49;97014.48;127028;1092;62614;-57
2021/08/04 17:15:42;;;;;;;2.45;2.10;;;;;;;29.05;28.89;97019.70;127045;1092;62620;-56
2021/08/04 17:18:09;;;;;;;3.60;2.10;;;;;;;28.87;29.31;97015.27;127103;1092;62633;-57
2021/08/04 17:20:36;;;;;;;3.20;2.40;;;;;;;28.69;29.83;97020.80;126993;1092;62613;-57
2021/08/04 17:23:03;;;;;;;3.33;2.83;;;;;;;28.47;30.26;97017.08;127061;1092;62617;-48
2021/08/04 17:25:30;;;;;;;3.70;2.90;;;;;;;28.26;30.93;97015.78;127076;1092;62719;-54
2021/08/04 17:27:57;;;;;;;4.60;2.67;;;;;;;28.05;31.53;97014.47;127103;1092;62605;-49
2021/08/04 17:30:24;;;;;;;3.60;2.77;;;;;;;27.85;32.03;97009.42;126935;1092;62645;-54
2021/08/04 17:32:51;;;;;;;3.87;2.40;;;;;;;27.60;32.61;97005.03;126891;1092;62591;-51
2021/08/04 17:35:18;;;;;;;3.70;2.97;;;;;;;27.39;32.77;97011.72;126914;1092;62620;-50
2021/08/04 17:37:45;;;;;;;4.47;2.93;;;;;;;27.17;33.53;97007.89;126849;1092;62713;-52
2021/08/04 17:40:12;;;;;;;3.77;2.60;;;;;;;26.97;33.71;97008.13;126895;1092;62624;-49
2021/08/04 17:42:39;;;;;;;3.80;2.80;;;;;;;26.74;34.52;97000.77;126982;1092;62617;-50
2021/08/04 17:45:08;;;;;;;4.30;2.40;;;;;;;26.54;35.09;97005.53;127082;1092;62616;-56
2021/08/04 17:47:35;;;;;;;3.40;2.83;;;;;;;26.33;35.27;97012.91;127025;1092;62617;-58
2021/08/04 17:50:02;;;;;;;4.03;2.67;;;;;;;26.12;35.69;97016.02;126907;1092;62731;-48
2021/08/04 17:52:29;;;;;;;3.90;2.60;;;;;;;25.93;36.50;97012.46;126926;1092;63012;-57
2021/08/04 17:54:56;;;;;;;3.47;2.60;;;;;;;25.75;36.81;97018.54;126850;1092;62850;-58
2021/08/04 17:57:23;;;;;;;3.90;2.57;;;;;;;25.57;36.99;97013.10;126927;1092;62635;-61
2021/08/04 17:59:50;;;;;;;3.53;2.37;;;;;;;25.40;37.46;97013.60;126932;1092;62616;-48
2021/08/04 18:02:17;;;;;;;4.67;2.50;;;;;;;25.25;37.92;97012.27;126901;1092;62733;-58
2021/08/04 18:04:44;;;;;;;4.10;2.47;;;;;;;25.09;38.19;97008.21;126946;1092;62713;-56
2021/08/04 18:07:11;;;;;;;3.43;2.63;;;;;;;24.93;38.48;97014.84;127007;1092;62564;-56
2021/08/04 18:09:38;;;;;;;4.20;3.17;;;;;;;24.77;38.97;97024.13;126913;1092;62569;-56
2021/08/04 18:12:06;;;;;;;3.47;2.63;;;;;;;24.61;39.32;97025.43;126885;1092;62601;-53
2021/08/04 18:14:33;;;;;;;3.60;2.80;;;;;;;24.47;39.96;97033.69;127034;1092;62603;-55
2021/08/04 18:17:00;;;;;;;3.67;2.53;;;;;;;24.32;40.11;97037.38;126939;1092;62627;-46
2021/08/04 18:19:27;;;;;;;4.13;3.00;;;;;;;24.19;40.70;97042.73;127126;1092;62627;-55
2021/08/04 18:21:55;;;;;;;3.73;2.73;;;;;;;24.06;40.88;97043.55;127023;1092;62616;-51
2021/08/04 18:24:22;;;;;;;4.53;3.10;;;;;;;23.93;41.41;97043.54;126867;1092;63073;-54
2021/08/04 18:26:49;;;;;;;4.53;3.17;;;;;;;23.80;41.82;97049.71;127002;1092;62620;-53
2021/08/04 18:29:16;;;;;;;3.77;3.13;;;;;;;23.69;42.04;97047.63;126927;1092;62636;-54
2021/08/04 18:31:43;;;;;;;4.70;3.07;;;;;;;23.58;42.51;97059.70;126872;1092;62640;-56
2021/08/04 18:34:11;;;;;;;3.70;3.00;;;;;;;23.47;42.55;97048.78;126942;1092;62620;-49
2021/08/04 18:36:39;;;;;;;3.68;3.28;;;;;;;23.36;42.81;97053.68;126934;1092;62691;-53
2021/08/04 18:39:06;;;;;;;3.73;3.10;;;;;;;23.27;42.63;97054.88;126971;1092;62617;-54
2021/08/04 18:41:33;;;;;;;3.80;2.90;;;;;;;23.18;43.29;97060.59;126939;1092;62620;-56
2021/08/04 18:43:59;;;;;;;3.40;2.70;;;;;;;23.07;43.49;97064.66;126942;1092;62582;-53
2021/08/04 18:46:26;;;;;;;3.63;2.83;;;;;;;22.98;43.68;97071.19;126954;1089;62636;-55
2021/08/04 18:48:53;;;;;;;3.90;3.20;;;;;;;22.88;43.92;97066.19;126843;1092;62686;-52
2021/08/04 18:51:20;;;;;;;3.77;2.73;;;;;;;22.80;44.17;97066.34;127131;1092;62625;-47
2021/08/04 18:53:47;;;;;;;4.17;2.97;;;;;;;22.72;44.47;97069.16;127159;1092;62620;-54
2021/08/04 18:56:15;;;;;;;4.50;3.10;;;;;;;22.65;44.50;97068.28;127160;1092;62616;-54
2021/08/04 18:58:42;;;;;;;4.13;2.67;;;;;;;22.56;44.94;97067.64;127113;1092;62626;-54
2021/08/04 19:01:09;;;;;;;4.07;2.87;;;;;;;22.48;45.05;97062.46;126936;1092;62657;-50
2021/08/04 19:03:36;;;;;;;4.50;2.83;;;;;;;22.41;45.15;97062.41;126953;1092;63083;-52
2021/08/04 19:06:12;;;;;;;3.97;2.93;;;;;;;22.33;45.32;97067.90;127131;1092;62672;-47
2021/08/04 19:08:39;;;;;;;3.50;2.80;;;;;;;22.25;45.73;97068.85;127155;1092;62575;-46
2021/08/04 19:11:08;;;;;;;3.77;2.93;;;;;;;22.18;45.76;97075.95;127038;1092;62597;-52
2021/08/04 19:13:37;;;;;;;4.27;2.67;;;;;;;22.11;46.00;97067.08;127040;1092;62585;-52
2021/08/04 19:16:08;;;;;;;3.58;2.75;;;;;;;22.07;46.10;97068.47;127081;1092;62681;-54
2021/08/04 19:18:36;;;;;;;3.30;2.57;;;;;;;22.02;46.11;97074.37;127046;1092;62625;-55
2021/08/04 19:21:03;;;;;;;4.30;3.00;;;;;;;21.98;46.22;97075.77;126943;1092;62598;-50
2021/08/04 19:23:30;;;;;;;3.77;2.67;;;;;;;21.93;46.36;97072.04;126890;1092;62657;-48
2021/08/04 19:25:57;;;;;;;4.27;2.73;;;;;;;21.86;46.46;97071.95;126900;1092;62612;-55
2021/08/04 19:28:24;;;;;;;4.33;2.90;;;;;;;21.81;46.59;97074.38;127089;1092;62642;-54
2021/08/04 19:30:51;;;;;;;3.20;2.60;;;;;;;21.76;46.98;97076.78;127106;1092;63073;-58
2021/08/04 19:33:18;;;;;;;4.17;2.60;;;;;;;21.70;47.24;97077.55;127031;1092;62620;-53
2021/08/04 19:35:46;;;;;;;3.00;2.40;;;;;;;21.65;47.26;97080.78;126882;1092;62617;-52
2021/08/04 19:38:12;;;;;;;4.47;2.83;;;;;;;21.63;47.51;97080.16;127017;1092;62674;-57
2021/08/04 19:40:40;;;;;;;4.73;3.10;;;;;;;21.60;47.89;97083.19;126906;1092;62632;-47
2021/08/04 19:43:17;;;;;;;3.80;2.73;;;;;;;21.56;47.92;97081.91;126996;1092;62636;-51
2021/08/04 19:45:44;;;;;;;3.57;2.60;;;;;;;21.52;48.01;97077.98;126968;1092;62619;-54
2021/08/04 19:48:10;;;;;;;4.63;2.90;;;;;;;21.48;48.16;97077.52;126879;1092;62629;-49
2021/08/04 19:50:37;;;;;;;3.47;2.60;;;;;;;21.43;48.42;97071.13;126881;1092;62875;-52
2021/08/04 19:53:07;;;;;;;3.33;2.90;;;;;;;21.37;48.38;97074.55;126918;1092;62703;-59
2021/08/04 19:55:36;;;;;;;3.50;2.40;;;;;;;21.31;48.80;97078.78;126991;1092;62633;-48
2021/08/04 19:58:04;;;;;;;3.87;2.57;;;;;;;21.24;48.86;97076.00;126949;1092;62568;-56
2021/08/04 20:00:31;;;;;;;3.43;2.70;;;;;;;21.18;49.26;97074.09;126977;1092;62613;-48
2021/08/04 20:02:58;;;;;;;3.90;2.53;;;;;;;21.10;49.51;97069.70;127093;1092;62767;-53
2021/08/04 20:05:25;;;;;;;3.43;2.50;;;;;;;21.04;49.49;97072.30;127074;1092;62786;-48
2021/08/04 20:07:52;;;;;;;3.80;2.53;;;;;;;20.97;49.84;97068.71;127037;1092;62572;-56
2021/08/04 20:10:19;;;;;;;3.97;2.60;;;;;;;20.90;50.06;97070.48;127031;1092;62620;-56
2021/08/04 20:12:46;;;;;;;3.07;2.53;;;;;;;20.83;50.40;97071.20;127023;1092;63022;-50
2021/08/04 20:15:13;;;;;;;3.83;2.73;;;;;;;20.76;50.74;97067.64;126973;1092;62626;-52
2021/08/04 20:17:40;;;;;;;3.63;2.60;;;;;;;20.70;50.90;97063.05;126874;1092;62767;-50
2021/08/04 20:20:08;;;;;;;4.40;2.80;;;;;;;20.64;51.38;97057.66;126974;1092;63022;-53
2021/08/04 20:22:35;;;;;;;4.73;2.97;;;;;;;20.57;51.40;97068.20;127041;1092;62537;-55
2021/08/04 20:25:02;;;;;;;3.90;2.77;;;;;;;20.53;51.86;97073.05;126981;1092;62617;-52
2021/08/04 20:27:29;;;;;;;4.23;3.10;;;;;;;20.46;52.11;97063.29;126845;1092;62697;-51
2021/08/04 20:29:56;;;;;;;3.70;2.87;;;;;;;20.40;52.11;97074.64;126890;1092;62685;-54
2021/08/04 20:32:23;;;;;;;5.67;3.10;;;;;;;20.34;52.32;97066.41;126875;1092;62880;-54
2021/08/04 20:34:50;;;;;;;5.57;3.50;;;;;;;20.28;52.38;97061.80;126958;1092;62617;-54
2021/08/04 20:37:17;;;;;;;4.20;3.10;;;;;;;20.22;52.64;97059.88;127001;1092;62684;-54
2021/08/04 20:39:44;;;;;;;4.87;3.03;;;;;;;20.17;53.00;97062.25;127066;1092;62589;-58
2021/08/04 20:42:11;;;;;;;3.80;3.27;;;;;;;20.12;53.05;97055.84;127049;1092;62626;-55
2021/08/04 20:44:38;;;;;;;5.33;3.37;;;;;;;20.05;53.08;97053.88;126961;1092;62613;-56
2021/08/04 20:47:05;;;;;;;4.77;3.13;;;;;;;20.00;53.46;97055.43;126955;1092;62627;-56
2021/08/04 20:49:32;;;;;;;3.80;3.03;;;;;;;19.95;53.38;97049.84;127055;1092;62585;-56
2021/08/04 20:51:59;;;;;;;3.30;2.83;;;;;;;19.89;53.79;97048.73;126929;1092;63073;-58
2021/08/04 20:54:26;;;;;;;4.53;3.30;;;;;;;19.84;53.79;97045.80;126968;1092;62629;-50
2021/08/04 20:56:53;;;;;;;3.83;2.80;;;;;;;19.78;53.98;97050.00;126941;1092;62652;-56
2021/08/04 20:59:23;;;;;;;4.40;3.03;;;;;;;19.73;54.18;97046.20;126899;1092;62612;-48
2021/08/04 21:01:51;;;;;;;6.13;3.00;;;;;;;19.69;54.20;97045.75;126980;1092;63073;-52
2021/08/04 21:04:18;;;;;;;4.23;3.00;;;;;;;19.64;54.34;97053.39;127028;1091;62709;-56
2021/08/04 21:06:45;;;;;;;4.20;3.20;;;;;;;19.58;54.58;97051.42;126919;1092;62620;-52
2021/08/04 21:09:12;;;;;;;4.30;3.03;;;;;;;19.53;54.91;97045.83;126980;1092;62572;-52
2021/08/04 21:11:42;;;;;;;4.67;2.90;;;;;;;19.47;55.16;97041.24;127118;1092;62665;-52
2021/08/04 21:14:09;;;;;;;4.18;2.73;;;;;;;19.41;55.23;97048.05;126960;1092;62687;-54
2021/08/04 21:16:36;;;;;;;4.00;3.00;;;;;;;19.37;55.26;97045.95;126900;1092;62770;-54
2021/08/04 21:19:03;;;;;;;4.77;3.10;;;;;;;19.31;55.32;97037.67;126892;1092;62673;-49
2021/08/04 21:21:30;;;;;;;4.13;3.23;;;;;;;19.25;55.55;97032.27;126970;1092;62604;-47
2021/08/04 21:23:57;;;;;;;3.97;3.10;;;;;;;19.21;55.73;97033.61;126981;1092;62572;-52
2021/08/04 21:26:24;;;;;;;3.53;2.80;;;;;;;19.17;55.92;97043.73;126924;1092;62683;-55
2021/08/04 21:28:51;;;;;;;4.50;3.20;;;;;;;19.13;56.25;97045.07;126935;1092;62760;-53
2021/08/04 21:31:18;;;;;;;4.13;3.07;;;;;;;19.07;56.31;97049.25;127084;1092;62710;-56
2021/08/04 21:33:45;;;;;;;3.40;2.67;;;;;;;19.03;56.27;97049.77;127001;1092;62566;-50
2021/08/04 21:36:12;;;;;;;4.27;2.87;;;;;;;18.98;56.85;97041.52;127062;1092;62616;-57
2021/08/04 21:38:39;;;;;;;3.87;2.87;;;;;;;18.93;56.67;97039.39;126942;1092;62616;-49
2021/08/04 21:41:06;;;;;;;4.13;2.87;;;;;;;18.91;56.93;97045.88;126928;1092;62636;-54
2021/08/04 21:43:33;;;;;;;4.10;2.83;;;;;;;18.86;56.99;97056.98;126950;1092;62771;-56
2021/08/04 21:46:00;;;;;;;5.45;3.15;;;;;;;18.83;57.29;97059.96;127051;1092;62625;-52
2021/08/04 21:48:27;;;;;;;5.00;3.27;;;;;;;18.80;57.42;97057.64;127074;1092;62625;-56
2021/08/04 21:50:53;;;;;;;4.43;2.97;;;;;;;18.77;57.49;97055.36;127053;1092;62617;-56
2021/08/04 21:53:20;;;;;;;4.07;2.87;;;;;;;18.73;57.65;97052.22;127101;1092;62639;-57